createdAt,value
2022-08-26T00:02:20.757Z,13.23
2022-08-26T00:05:13.218Z,12.40
2022-08-26T00:08:03.185Z,12.27
2022-08-26T00:10:55.253Z,12.50
2022-08-26T00:13:47.992Z,12.95
2022-08-26T00:16:47.886Z,11.77
2022-08-26T00:19:39.548Z,11.73
2022-08-26T00:22:30.332Z,12.05
2022-08-26T00:25:20.226Z,10.93
2022-08-26T00:28:11.027Z,12.93
2022-08-26T00:31:00.974Z,11.93
2022-08-26T00:33:54.030Z,11.00
2022-08-26T00:36:46.293Z,11.13
2022-08-26T00:39:36.859Z,10.40
2022-08-26T00:42:26.579Z,9.77
2022-08-26T00:45:17.277Z,9.50
2022-08-26T00:48:08.411Z,8.35
2022-08-26T00:51:11.133Z,7.88
2022-08-26T00:54:10.788Z,7.82
2022-08-26T00:57:16.381Z,6.28
2022-08-26T01:00:12.854Z,7.32
2022-08-26T01:03:05.239Z,6.60
2022-08-26T01:06:01.222Z,7.35
2022-08-26T01:08:53.570Z,6.20
2022-08-26T01:11:44.134Z,5.95
2022-08-26T01:14:37.032Z,6.93
2022-08-26T01:17:27.078Z,6.35
2022-08-26T01:20:32.835Z,7.47
2022-08-26T01:23:22.949Z,8.77
2022-08-26T01:26:26.712Z,7.85
2022-08-26T01:29:20.202Z,8.05
2022-08-26T01:32:12.340Z,8.93
2022-08-26T01:35:02.152Z,9.82
2022-08-26T01:37:53.692Z,8.27
2022-08-26T01:40:47.311Z,9.32
2022-08-26T01:43:40.042Z,10.18
2022-08-26T01:46:30.466Z,9.07
2022-08-26T01:49:21.239Z,7.75
2022-08-26T01:52:14.616Z,7.38
2022-08-26T01:55:07.560Z,7.57
2022-08-26T01:58:00.561Z,7.85
2022-08-26T02:00:51.479Z,8.15
2022-08-26T02:04:06.290Z,8.80
2022-08-26T02:06:57.573Z,7.75
2022-08-26T02:09:48.563Z,8.02
2022-08-26T02:12:38.493Z,7.47
2022-08-26T02:15:28.716Z,8.18
2022-08-26T02:18:18.675Z,8.82
2022-08-26T02:21:09.899Z,8.60
2022-08-26T02:24:10.841Z,9.32
2022-08-26T02:27:02.580Z,9.50
2022-08-26T02:30:02.981Z,9.95
2022-08-26T02:32:53.496Z,9.13
2022-08-26T02:35:42.548Z,9.32
2022-08-26T02:38:32.910Z,10.85
2022-08-26T02:41:23.113Z,9.30
2022-08-26T02:44:13.170Z,10.10
2022-08-26T02:47:02.934Z,12.25
2022-08-26T02:49:53.681Z,10.10
2022-08-26T02:52:49.234Z,9.50
2022-08-26T02:55:40.815Z,9.23
2022-08-26T02:58:31.486Z,13.85
2022-08-26T03:01:26.385Z,9.48
2022-08-26T03:04:16.217Z,10.00
2022-08-26T03:07:07.008Z,10.55
2022-08-26T03:09:56.885Z,10.35
2022-08-26T03:12:48.169Z,10.07
2022-08-26T03:15:37.717Z,10.50
2022-08-26T03:18:27.818Z,10.82
2022-08-26T03:21:19.549Z,10.52
2022-08-26T03:24:12.627Z,10.02
2022-08-26T03:27:05.797Z,10.30
2022-08-26T03:30:15.192Z,10.60
2022-08-26T03:33:06.480Z,10.00
2022-08-26T03:35:57.105Z,10.82
2022-08-26T03:38:46.670Z,10.18
2022-08-26T03:41:38.048Z,10.50
2022-08-26T03:44:30.854Z,10.13
2022-08-26T03:47:21.601Z,10.55
2022-08-26T03:50:15.456Z,10.80
2022-08-26T03:53:07.478Z,10.05
2022-08-26T03:56:02.639Z,9.90
2022-08-26T03:58:52.344Z,9.32
2022-08-26T04:01:43.649Z,8.48
2022-08-26T04:04:33.630Z,8.40
2022-08-26T04:07:23.435Z,8.45
2022-08-26T04:10:20.338Z,9.93
2022-08-26T04:13:10.328Z,9.90
2022-08-26T04:15:59.857Z,9.05
2022-08-26T04:18:49.040Z,8.70
2022-08-26T04:21:39.906Z,9.00
2022-08-26T04:24:30.923Z,9.68
2022-08-26T04:27:19.931Z,9.90
2022-08-26T04:30:10.365Z,9.05
2022-08-26T04:33:00.299Z,9.23
2022-08-26T04:35:51.400Z,9.70
2022-08-26T04:38:42.880Z,9.00
2022-08-26T04:41:34.606Z,8.13
2022-08-26T04:44:27.088Z,7.53
2022-08-26T04:47:16.980Z,8.50
2022-08-26T04:50:10.984Z,8.63
2022-08-26T04:53:00.910Z,7.40
2022-08-26T04:55:52.417Z,7.97
2022-08-26T04:58:49.836Z,11.13
2022-08-26T05:01:39.783Z,9.98
2022-08-26T05:04:29.848Z,9.27
2022-08-26T05:07:22.204Z,8.80
2022-08-26T05:10:12.807Z,9.75
2022-08-26T05:13:05.142Z,8.65
2022-08-26T05:16:05.643Z,8.60
2022-08-26T05:18:56.154Z,9.23
2022-08-26T05:21:46.010Z,9.38
2022-08-26T05:24:37.659Z,8.68
2022-08-26T05:27:30.898Z,7.72
2022-08-26T05:30:25.830Z,8.15
2022-08-26T05:33:16.187Z,9.20
2022-08-26T05:36:16.884Z,6.78
2022-08-26T05:39:10.515Z,6.63
2022-08-26T05:42:00.949Z,6.70
2022-08-26T05:44:56.271Z,7.43
2022-08-26T05:47:46.261Z,7.50
2022-08-26T05:50:42.247Z,8.20
2022-08-26T05:53:33.397Z,6.88
2022-08-26T05:56:27.562Z,6.15
2022-08-26T05:59:17.226Z,6.93
2022-08-26T06:02:16.085Z,6.65
2022-08-26T06:05:07.588Z,6.53
2022-08-26T06:08:15.383Z,6.50
2022-08-26T06:11:18.373Z,6.68
2022-08-26T06:14:09.265Z,7.05
2022-08-26T06:16:59.156Z,6.55
2022-08-26T06:19:49.394Z,7.75
2022-08-26T06:22:57.321Z,6.90
2022-08-26T06:25:51.855Z,7.65
2022-08-26T06:28:43.618Z,7.30
2022-08-26T06:31:37.253Z,8.50
2022-08-26T06:34:30.913Z,9.18
2022-08-26T06:37:23.836Z,8.88
2022-08-26T06:40:14.172Z,8.82
2022-08-26T06:43:04.162Z,7.22
2022-08-26T06:46:01.235Z,8.65
2022-08-26T06:48:56.268Z,7.30
2022-08-26T06:51:46.907Z,8.00
2022-08-26T06:54:44.420Z,9.40
2022-08-26T06:57:35.703Z,8.95
2022-08-26T07:00:29.559Z,9.32
2022-08-26T07:03:22.337Z,8.57
2022-08-26T07:06:12.361Z,12.68
2022-08-26T07:09:09.821Z,12.52
2022-08-26T07:12:02.644Z,10.05
2022-08-26T07:14:53.076Z,10.02
2022-08-26T07:17:43.717Z,15.32
2022-08-26T07:20:35.490Z,7.43
2022-08-26T07:23:25.476Z,8.55
2022-08-26T07:26:21.747Z,8.65
2022-08-26T07:29:16.172Z,9.27
2022-08-26T07:32:07.769Z,7.95
2022-08-26T07:34:57.311Z,10.23
2022-08-26T07:37:46.593Z,9.07
2022-08-26T07:40:36.670Z,8.48
2022-08-26T07:43:26.379Z,9.23
2022-08-26T07:46:29.926Z,8.07
2022-08-26T07:49:20.877Z,9.73
2022-08-26T07:52:11.138Z,14.38
2022-08-26T07:55:03.642Z,9.85
2022-08-26T07:57:53.205Z,10.35
2022-08-26T08:00:43.166Z,37.70
2022-08-26T08:03:34.388Z,13.70
2022-08-26T08:06:27.294Z,19.40
2022-08-26T08:09:22.412Z,11.45
2022-08-26T08:12:15.423Z,11.88
2022-08-26T08:15:06.064Z,10.48
2022-08-26T08:17:58.876Z,14.57
2022-08-26T08:20:54.653Z,11.55
2022-08-26T08:23:48.672Z,12.77
2022-08-26T08:26:38.533Z,11.35
2022-08-26T08:29:30.978Z,10.07
2022-08-26T08:32:20.539Z,10.68
2022-08-26T08:35:14.593Z,9.18
2022-08-26T08:38:05.790Z,9.15
2022-08-26T08:40:57.162Z,10.07
2022-08-26T08:43:47.778Z,10.13
2022-08-26T08:46:39.078Z,8.85
2022-08-26T08:49:29.658Z,9.73
2022-08-26T08:52:33.603Z,8.57
2022-08-26T08:55:23.321Z,8.55
2022-08-26T08:58:22.070Z,12.48
2022-08-26T09:01:35.298Z,12.80
2022-08-26T09:04:28.264Z,12.30
2022-08-26T09:07:42.621Z,11.27
2022-08-26T09:10:43.637Z,12.35
2022-08-26T09:13:34.291Z,10.77
2022-08-26T09:16:36.764Z,11.50
2022-08-26T09:19:35.077Z,11.98
2022-08-26T09:22:38.494Z,12.88
2022-08-26T09:25:27.974Z,10.70
2022-08-26T09:28:21.081Z,10.80
2022-08-26T09:31:25.211Z,12.70
2022-08-26T09:34:23.567Z,11.80
2022-08-26T09:37:13.146Z,11.40
2022-08-26T09:40:38.329Z,15.85
2022-08-26T09:43:30.344Z,12.43
2022-08-26T09:46:28.736Z,13.40
2022-08-26T09:49:38.771Z,11.93
2022-08-26T09:52:29.235Z,10.88
2022-08-26T09:55:25.692Z,12.27
2022-08-26T09:58:34.342Z,9.82
2022-08-26T10:01:45.294Z,10.35
2022-08-26T10:04:35.787Z,9.63
2022-08-26T10:07:52.808Z,11.70
2022-08-26T10:10:44.080Z,12.52
2022-08-26T10:13:43.156Z,15.75
2022-08-26T10:16:49.148Z,12.23
2022-08-26T10:19:56.803Z,13.30
2022-08-26T10:22:52.039Z,11.50
2022-08-26T10:25:59.234Z,13.27
2022-08-26T10:28:50.242Z,11.60
2022-08-26T10:31:43.422Z,12.07
2022-08-26T10:34:36.281Z,14.32
2022-08-26T10:37:28.547Z,12.50
2022-08-26T10:40:49.085Z,11.20
2022-08-26T10:43:47.681Z,11.57
2022-08-26T10:46:44.762Z,10.85
2022-08-26T10:49:34.128Z,13.13
2022-08-26T10:52:38.570Z,10.65
2022-08-26T10:56:03.908Z,11.30
2022-08-26T10:59:12.494Z,17.30
2022-08-26T11:02:30.857Z,12.15
2022-08-26T11:05:25.021Z,12.27
2022-08-26T11:08:25.364Z,9.05
2022-08-26T11:11:41.539Z,8.65
2022-08-26T11:14:53.748Z,8.98
2022-08-26T11:17:49.082Z,8.18
2022-08-26T11:20:44.969Z,9.95
2022-08-26T11:23:40.398Z,10.65
2022-08-26T11:26:55.611Z,8.88
2022-08-26T11:30:04.066Z,8.23
2022-08-26T11:32:59.837Z,8.00
2022-08-26T11:35:50.694Z,8.95
2022-08-26T11:38:45.256Z,12.45
2022-08-26T11:41:35.694Z,14.00
2022-08-26T11:44:42.002Z,13.18
2022-08-26T11:47:39.599Z,13.35
2022-08-26T11:50:31.173Z,17.35
2022-08-26T11:53:21.352Z,12.45
2022-08-26T11:56:31.526Z,9.93
2022-08-26T11:59:25.580Z,10.45
2022-08-26T12:02:18.284Z,8.60
2022-08-26T12:05:09.632Z,8.90
2022-08-26T12:08:10.060Z,10.77
2022-08-26T12:11:09.958Z,10.35
2022-08-26T12:14:01.764Z,8.75
2022-08-26T12:16:55.373Z,10.30
2022-08-26T12:19:45.939Z,11.10
2022-08-26T12:22:36.209Z,9.60
2022-08-26T12:25:26.683Z,9.82
2022-08-26T12:28:16.223Z,9.38
2022-08-26T12:31:08.325Z,10.25
2022-08-26T12:34:00.539Z,9.38
2022-08-26T12:36:54.564Z,9.85
2022-08-26T12:39:45.930Z,10.30
2022-08-26T12:42:44.024Z,9.40
2022-08-26T12:45:39.638Z,10.32
2022-08-26T12:48:33.422Z,8.48
2022-08-26T12:51:29.296Z,8.90
2022-08-26T12:54:23.013Z,9.00
2022-08-26T12:57:14.740Z,7.40
2022-08-26T13:00:32.239Z,8.30
2022-08-26T13:03:33.316Z,8.15
2022-08-26T13:06:41.730Z,8.02
2022-08-26T13:09:33.072Z,7.25
2022-08-26T13:12:42.391Z,7.93
2022-08-26T13:15:32.576Z,7.43
2022-08-26T13:18:26.908Z,7.10
2022-08-26T13:21:22.951Z,7.78
2022-08-26T13:24:15.056Z,9.63
2022-08-26T13:27:06.966Z,9.15
2022-08-26T13:29:59.202Z,7.60
2022-08-26T13:32:49.278Z,7.88
2022-08-26T13:35:38.789Z,8.77
2022-08-26T13:38:33.645Z,9.88
2022-08-26T13:41:29.248Z,10.32
2022-08-26T13:44:19.579Z,9.75
2022-08-26T13:47:10.065Z,9.38
2022-08-26T13:50:00.163Z,8.85
2022-08-26T13:52:50.025Z,11.82
2022-08-26T13:55:39.523Z,11.35
2022-08-26T13:58:29.475Z,13.63
2022-08-26T14:01:19.728Z,11.75
2022-08-26T14:04:12.611Z,13.45
2022-08-26T14:07:02.657Z,12.18
2022-08-26T14:09:52.179Z,10.57
2022-08-26T14:12:42.339Z,9.98
2022-08-26T14:15:36.823Z,9.85
2022-08-26T14:18:31.749Z,9.50
2022-08-26T14:21:22.402Z,9.50
2022-08-26T14:24:13.250Z,9.70
2022-08-26T14:27:03.597Z,9.57
2022-08-26T14:29:54.149Z,9.93
2022-08-26T14:32:46.978Z,8.95
2022-08-26T14:35:36.258Z,9.43
2022-08-26T14:38:27.407Z,9.07
2022-08-26T14:41:18.675Z,9.43
2022-08-26T14:44:12.927Z,9.57
2022-08-26T14:47:04.492Z,9.32
2022-08-26T14:49:54.394Z,10.73
2022-08-26T14:53:02.467Z,10.55
2022-08-26T14:55:53.391Z,10.75
2022-08-26T14:58:43.145Z,10.50
2022-08-26T15:01:33.964Z,11.07
2022-08-26T15:04:25.359Z,10.98
2022-08-26T15:07:15.836Z,10.93
2022-08-26T15:10:15.944Z,10.55
2022-08-26T15:13:06.392Z,11.15
2022-08-26T15:15:55.864Z,10.38
2022-08-26T15:18:46.423Z,12.40
2022-08-26T15:21:37.926Z,12.82
2022-08-26T15:24:30.250Z,13.60
2022-08-26T15:27:21.251Z,14.38
2022-08-26T15:30:12.769Z,15.27
2022-08-26T15:33:02.775Z,15.32
2022-08-26T15:35:52.633Z,14.98
2022-08-26T15:38:43.937Z,16.00
2022-08-26T15:41:34.918Z,14.90
2022-08-26T15:44:26.588Z,16.90
2022-08-26T15:47:16.533Z,17.00
2022-08-26T15:50:06.417Z,16.50
2022-08-26T15:52:55.681Z,16.73
2022-08-26T15:55:47.163Z,15.98
2022-08-26T15:58:38.226Z,15.70
2022-08-26T16:01:29.364Z,15.90
2022-08-26T16:04:20.019Z,17.85
2022-08-26T16:07:10.263Z,17.70
2022-08-26T16:09:59.796Z,16.52
2022-08-26T16:12:49.729Z,16.83
2022-08-26T16:15:40.656Z,15.18
2022-08-26T16:18:30.589Z,16.55
2022-08-26T16:21:22.888Z,17.67
2022-08-26T16:24:14.002Z,17.52
2022-08-26T16:27:04.792Z,19.10
2022-08-26T16:29:54.813Z,18.15
2022-08-26T16:32:47.463Z,18.27
2022-08-26T16:35:37.296Z,19.13
2022-08-26T16:38:27.562Z,19.30
2022-08-26T16:41:17.732Z,19.73
2022-08-26T16:44:15.470Z,18.17
2022-08-26T16:47:05.065Z,17.92
2022-08-26T16:49:54.980Z,17.58
2022-08-26T16:52:44.785Z,16.58
2022-08-26T16:55:34.644Z,16.55
2022-08-26T16:58:24.288Z,16.00
2022-08-26T17:01:14.095Z,15.80
2022-08-26T17:04:04.971Z,16.55
2022-08-26T17:06:54.986Z,14.90
2022-08-26T17:09:45.642Z,15.30
2022-08-26T17:12:37.562Z,14.23
2022-08-26T17:15:27.287Z,13.25
2022-08-26T17:18:17.392Z,12.43
2022-08-26T17:21:11.087Z,12.32
2022-08-26T17:24:00.876Z,10.35
2022-08-26T17:26:55.513Z,10.18
2022-08-26T17:29:45.971Z,10.13
2022-08-26T17:32:36.422Z,9.98
2022-08-26T17:35:26.527Z,10.18
2022-08-26T17:38:16.011Z,10.38
2022-08-26T17:41:09.962Z,9.43
2022-08-26T17:43:59.531Z,8.02
2022-08-26T17:46:49.550Z,7.50
2022-08-26T17:49:39.279Z,8.38
2022-08-26T17:52:29.547Z,6.80
2022-08-26T17:55:25.107Z,6.97
2022-08-26T17:58:15.320Z,6.72
2022-08-26T18:01:07.324Z,6.80
2022-08-26T18:04:00.458Z,6.45
2022-08-26T18:06:50.598Z,6.47
2022-08-26T18:09:40.589Z,6.30
2022-08-26T18:12:30.331Z,6.40
2022-08-26T18:15:20.359Z,6.47
2022-08-26T18:18:17.422Z,6.07
2022-08-26T18:21:17.341Z,6.78
2022-08-26T18:24:13.358Z,7.45
2022-08-26T18:27:03.612Z,8.13
2022-08-26T18:29:53.122Z,7.68
2022-08-26T18:32:42.987Z,7.88
2022-08-26T18:35:32.711Z,7.13
2022-08-26T18:38:22.503Z,7.57
2022-08-26T18:41:12.715Z,7.55
2022-08-26T18:44:02.420Z,6.75
2022-08-26T18:46:52.804Z,6.90
2022-08-26T18:49:44.197Z,6.75
2022-08-26T18:52:34.428Z,6.20
2022-08-26T18:55:24.369Z,6.30
2022-08-26T18:58:14.305Z,6.15
2022-08-26T19:01:04.234Z,7.78
2022-08-26T19:03:54.270Z,6.65
2022-08-26T19:06:44.360Z,5.47
2022-08-26T19:09:35.167Z,4.82
2022-08-26T19:12:27.140Z,4.70
2022-08-26T19:15:17.023Z,4.18
2022-08-26T19:18:08.847Z,4.28
2022-08-26T19:20:58.724Z,4.60
2022-08-26T19:23:48.856Z,4.32
2022-08-26T19:26:40.232Z,4.40
2022-08-26T19:29:33.909Z,4.15
2022-08-26T19:32:25.627Z,4.60
2022-08-26T19:35:16.327Z,4.90
2022-08-26T19:38:06.405Z,5.20
2022-08-26T19:40:55.686Z,5.13
2022-08-26T19:43:46.173Z,4.80
2022-08-26T19:49:31.992Z,4.22
2022-08-26T19:52:30.037Z,4.13
2022-08-26T19:55:21.320Z,4.40
2022-08-26T19:58:12.841Z,4.38
2022-08-26T20:01:03.158Z,3.83
2022-08-26T20:03:53.066Z,3.85
2022-08-26T20:06:42.842Z,4.05
2022-08-26T20:09:33.972Z,3.00
2022-08-26T20:12:24.188Z,3.60
2022-08-26T20:15:15.807Z,3.33
2022-08-26T20:18:05.178Z,3.55
2022-08-26T20:21:13.437Z,3.45
2022-08-26T20:24:13.396Z,3.55
2022-08-26T20:27:07.513Z,4.22
2022-08-26T20:29:58.675Z,4.80
2022-08-26T20:32:48.041Z,4.13
2022-08-26T20:35:38.242Z,5.03
2022-08-26T20:38:28.055Z,4.05
2022-08-26T20:41:18.694Z,11.13
2022-08-26T20:44:08.694Z,5.15
2022-08-26T20:47:00.506Z,4.10
2022-08-26T20:49:52.331Z,4.28
2022-08-26T20:52:44.737Z,4.13
2022-08-26T20:55:35.147Z,3.90
2022-08-26T20:58:27.743Z,3.75
2022-08-26T21:01:23.878Z,3.67
2022-08-26T21:04:17.099Z,4.03
2022-08-26T21:07:06.919Z,4.38
2022-08-26T21:09:56.576Z,3.70
2022-08-26T21:12:49.554Z,4.32
2022-08-26T21:15:39.811Z,4.78
2022-08-26T21:18:29.510Z,4.72
2022-08-26T21:21:19.177Z,5.35
2022-08-26T21:24:15.444Z,5.90
2022-08-26T21:27:05.278Z,5.30
2022-08-26T21:29:55.313Z,4.40
2022-08-26T21:32:45.091Z,3.75
2022-08-26T21:35:34.851Z,3.50
2022-08-26T21:38:24.911Z,3.40
2022-08-26T21:41:21.752Z,2.75
2022-08-26T21:44:16.515Z,2.97
2022-08-26T21:47:06.301Z,3.60
2022-08-26T21:49:55.972Z,4.03
2022-08-26T21:52:45.553Z,3.85
2022-08-26T21:55:37.859Z,4.45
2022-08-26T21:58:27.532Z,4.75
2022-08-26T22:01:24.540Z,5.25
2022-08-26T22:04:15.055Z,6.25
2022-08-26T22:07:06.364Z,6.57
2022-08-26T22:09:56.444Z,5.43
2022-08-26T22:12:45.893Z,6.50
2022-08-26T22:15:41.796Z,6.18
2022-08-26T22:18:32.215Z,6.00
2022-08-26T22:21:25.710Z,5.38
2022-08-26T22:24:15.995Z,5.60
2022-08-26T22:27:06.348Z,6.45
2022-08-26T22:29:56.228Z,6.80
2022-08-26T22:32:47.024Z,6.32
2022-08-26T22:35:42.230Z,8.13
2022-08-26T22:38:31.621Z,7.90
2022-08-26T22:41:21.399Z,7.45
2022-08-26T22:44:11.964Z,9.05
2022-08-26T22:47:01.697Z,9.18
2022-08-26T22:49:52.613Z,9.60
2022-08-26T22:52:42.732Z,8.65
2022-08-26T22:55:32.940Z,8.63
2022-08-26T22:58:23.146Z,7.40
2022-08-26T23:01:20.869Z,7.05
2022-08-26T23:04:12.586Z,6.65
2022-08-26T23:07:02.563Z,9.40
2022-08-26T23:09:52.771Z,8.35
2022-08-26T23:12:43.272Z,7.97
2022-08-26T23:15:33.604Z,7.50
2022-08-26T23:18:23.458Z,7.32
2022-08-26T23:21:14.012Z,7.28
2022-08-26T23:24:03.822Z,8.48
2022-08-26T23:26:53.524Z,8.57
2022-08-26T23:29:43.878Z,8.75
2022-08-26T23:32:34.233Z,8.93
2022-08-26T23:35:24.282Z,8.13
2022-08-26T23:38:15.393Z,8.43
2022-08-26T23:41:07.594Z,6.00
2022-08-26T23:44:01.604Z,7.43
2022-08-26T23:46:53.003Z,7.35
2022-08-26T23:49:43.963Z,7.82
2022-08-26T23:52:52.970Z,6.97
2022-08-26T23:55:45.953Z,5.82
2022-08-26T23:58:36.379Z,6.32
